sensor_id;sensor_type;location;lat;lon;timestamp;P1;durP1;ratioP1;P2;durP2;ratioP2
19643;SDS011;9970;-36.854;174.870;2023-06-01T00:00:29;8.33;;;3.27;;
19643;SDS011;9970;-36.854;174.870;2023-06-01T00:03:01;8.90;;;3.10;;
19643;SDS011;9970;-36.854;174.870;2023-06-01T00:05:35;7.97;;;3.00;;
19643;SDS011;9970;-36.854;174.870;2023-06-01T00:08:08;4.70;;;3.03;;
19643;SDS011;9970;-36.854;174.870;2023-06-01T00:10:44;3.47;;;3.00;;
19643;SDS011;9970;-36.854;174.870;2023-06-01T00:13:17;7.00;;;3.30;;
19643;SDS011;9970;-36.854;174.870;2023-06-01T00:15:50;6.80;;;3.00;;
19643;SDS011;9970;-36.854;174.870;2023-06-01T00:18:23;4.83;;;3.10;;
19643;SDS011;9970;-36.854;174.870;2023-06-01T00:20:56;8.60;;;6.47;;
19643;SDS011;9970;-36.854;174.870;2023-06-01T00:23:30;7.50;;;3.50;;
19643;SDS011;9970;-36.854;174.870;2023-06-01T00:26:03;12.03;;;4.00;;
19643;SDS011;9970;-36.854;174.870;2023-06-01T00:28:36;13.00;;;3.97;;
19643;SDS011;9970;-36.854;174.870;2023-06-01T00:31:09;11.40;;;3.90;;
19643;SDS011;9970;-36.854;174.870;2023-06-01T00:33:42;5.20;;;3.63;;
19643;SDS011;9970;-36.854;174.870;2023-06-01T00:36:15;9.40;;;2.90;;
19643;SDS011;9970;-36.854;174.870;2023-06-01T00:38:48;8.40;;;3.00;;
19643;SDS011;9970;-36.854;174.870;2023-06-01T00:41:21;13.63;;;3.70;;
19643;SDS011;9970;-36.854;174.870;2023-06-01T00:43:54;7.63;;;3.13;;
19643;SDS011;9970;-36.854;174.870;2023-06-01T00:46:27;3.50;;;2.37;;
19643;SDS011;9970;-36.854;174.870;2023-06-01T00:49:01;12.00;;;3.13;;
19643;SDS011;9970;-36.854;174.870;2023-06-01T00:51:34;8.73;;;3.00;;
19643;SDS011;9970;-36.854;174.870;2023-06-01T00:54:07;3.90;;;2.80;;
19643;SDS011;9970;-36.854;174.870;2023-06-01T00:56:45;8.90;;;3.43;;
19643;SDS011;9970;-36.854;174.870;2023-06-01T00:59:16;3.90;;;3.07;;
19643;SDS011;9970;-36.854;174.870;2023-06-01T01:01:50;5.80;;;2.90;;
19643;SDS011;9970;-36.854;174.870;2023-06-01T01:04:22;8.00;;;3.20;;
19643;SDS011;9970;-36.854;174.870;2023-06-01T01:09:47;11.27;;;3.40;;
19643;SDS011;9970;-36.854;174.870;2023-06-01T01:12:26;4.87;;;3.10;;
19643;SDS011;9970;-36.854;174.870;2023-06-01T01:14:59;8.00;;;3.30;;
19643;SDS011;9970;-36.854;174.870;2023-06-01T01:17:37;3.90;;;2.73;;
19643;SDS011;9970;-36.854;174.870;2023-06-01T01:20:16;5.30;;;2.60;;
19643;SDS011;9970;-36.854;174.870;2023-06-01T01:23:06;3.53;;;2.80;;
19643;SDS011;9970;-36.854;174.870;2023-06-01T01:31:26;7.10;;;3.50;;
19643;SDS011;9970;-36.854;174.870;2023-06-01T01:33:59;4.53;;;2.90;;
19643;SDS011;9970;-36.854;174.870;2023-06-01T01:36:33;14.43;;;2.93;;
19643;SDS011;9970;-36.854;174.870;2023-06-01T01:39:06;8.43;;;3.63;;
19643;SDS011;9970;-36.854;174.870;2023-06-01T01:41:44;5.30;;;2.87;;
19643;SDS011;9970;-36.854;174.870;2023-06-01T01:44:17;8.20;;;3.13;;
19643;SDS011;9970;-36.854;174.870;2023-06-01T01:46:57;3.57;;;2.50;;
19643;SDS011;9970;-36.854;174.870;2023-06-01T01:49:48;4.70;;;3.10;;
19643;SDS011;9970;-36.854;174.870;2023-06-01T01:52:25;7.60;;;3.23;;
19643;SDS011;9970;-36.854;174.870;2023-06-01T01:55:10;6.40;;;2.70;;
19643;SDS011;9970;-36.854;174.870;2023-06-01T01:57:45;6.00;;;3.40;;
19643;SDS011;9970;-36.854;174.870;2023-06-01T02:00:18;8.10;;;2.73;;
19643;SDS011;9970;-36.854;174.870;2023-06-01T02:02:52;6.73;;;3.57;;
19643;SDS011;9970;-36.854;174.870;2023-06-01T02:05:25;18.13;;;4.27;;
19643;SDS011;9970;-36.854;174.870;2023-06-01T02:07:58;7.50;;;3.93;;
19643;SDS011;9970;-36.854;174.870;2023-06-01T02:10:42;16.13;;;3.87;;
19643;SDS011;9970;-36.854;174.870;2023-06-01T02:13:15;11.00;;;3.00;;
19643;SDS011;9970;-36.854;174.870;2023-06-01T02:15:48;5.43;;;3.03;;
19643;SDS011;9970;-36.854;174.870;2023-06-01T02:18:21;10.03;;;3.07;;
19643;SDS011;9970;-36.854;174.870;2023-06-01T02:20:55;11.13;;;3.00;;
19643;SDS011;9970;-36.854;174.870;2023-06-01T02:23:28;10.27;;;3.00;;
19643;SDS011;9970;-36.854;174.870;2023-06-01T02:26:02;10.33;;;3.37;;
19643;SDS011;9970;-36.854;174.870;2023-06-01T02:28:36;7.83;;;3.93;;
19643;SDS011;9970;-36.854;174.870;2023-06-01T02:31:12;6.77;;;3.20;;
19643;SDS011;9970;-36.854;174.870;2023-06-01T02:33:45;11.80;;;2.90;;
19643;SDS011;9970;-36.854;174.870;2023-06-01T02:36:18;5.70;;;3.00;;
19643;SDS011;9970;-36.854;174.870;2023-06-01T02:38:51;6.70;;;2.90;;
19643;SDS011;9970;-36.854;174.870;2023-06-01T02:41:24;5.60;;;3.30;;
19643;SDS011;9970;-36.854;174.870;2023-06-01T02:43:57;7.83;;;3.17;;
19643;SDS011;9970;-36.854;174.870;2023-06-01T02:46:30;13.40;;;3.30;;
19643;SDS011;9970;-36.854;174.870;2023-06-01T02:49:04;10.20;;;3.00;;
19643;SDS011;9970;-36.854;174.870;2023-06-01T02:51:37;2.87;;;2.43;;
19643;SDS011;9970;-36.854;174.870;2023-06-01T02:54:14;17.23;;;4.33;;
19643;SDS011;9970;-36.854;174.870;2023-06-01T02:56:47;23.03;;;3.50;;
19643;SDS011;9970;-36.854;174.870;2023-06-01T02:59:20;6.37;;;3.30;;
19643;SDS011;9970;-36.854;174.870;2023-06-01T03:01:53;5.03;;;2.97;;
19643;SDS011;9970;-36.854;174.870;2023-06-01T03:04:26;11.20;;;4.10;;
19643;SDS011;9970;-36.854;174.870;2023-06-01T03:07:01;8.47;;;3.27;;
19643;SDS011;9970;-36.854;174.870;2023-06-01T03:09:34;9.67;;;3.73;;
19643;SDS011;9970;-36.854;174.870;2023-06-01T03:12:06;9.00;;;4.80;;
19643;SDS011;9970;-36.854;174.870;2023-06-01T03:14:40;10.57;;;3.53;;
19643;SDS011;9970;-36.854;174.870;2023-06-01T03:17:13;15.47;;;3.40;;
19643;SDS011;9970;-36.854;174.870;2023-06-01T03:19:46;11.27;;;3.50;;
19643;SDS011;9970;-36.854;174.870;2023-06-01T03:22:19;9.53;;;3.33;;
19643;SDS011;9970;-36.854;174.870;2023-06-01T03:24:57;6.73;;;3.23;;
19643;SDS011;9970;-36.854;174.870;2023-06-01T03:27:30;8.87;;;3.77;;
19643;SDS011;9970;-36.854;174.870;2023-06-01T03:30:03;11.57;;;4.50;;
19643;SDS011;9970;-36.854;174.870;2023-06-01T03:32:38;13.73;;;4.50;;
19643;SDS011;9970;-36.854;174.870;2023-06-01T03:35:12;5.73;;;4.00;;
19643;SDS011;9970;-36.854;174.870;2023-06-01T03:37:45;8.03;;;3.33;;
19643;SDS011;9970;-36.854;174.870;2023-06-01T03:40:22;11.10;;;3.83;;
19643;SDS011;9970;-36.854;174.870;2023-06-01T03:42:55;3.53;;;3.00;;
19643;SDS011;9970;-36.854;174.870;2023-06-01T03:45:28;11.80;;;3.97;;
19643;SDS011;9970;-36.854;174.870;2023-06-01T03:48:01;7.63;;;4.50;;
19643;SDS011;9970;-36.854;174.870;2023-06-01T03:50:34;9.80;;;3.83;;
19643;SDS011;9970;-36.854;174.870;2023-06-01T03:53:07;10.00;;;2.90;;
19643;SDS011;9970;-36.854;174.870;2023-06-01T03:55:41;4.70;;;3.27;;
19643;SDS011;9970;-36.854;174.870;2023-06-01T03:58:13;17.03;;;4.10;;
19643;SDS011;9970;-36.854;174.870;2023-06-01T04:00:48;14.03;;;3.80;;
19643;SDS011;9970;-36.854;174.870;2023-06-01T04:03:22;10.20;;;2.70;;
19643;SDS011;9970;-36.854;174.870;2023-06-01T04:05:55;12.43;;;3.70;;
19643;SDS011;9970;-36.854;174.870;2023-06-01T04:08:32;9.47;;;3.80;;
19643;SDS011;9970;-36.854;174.870;2023-06-01T04:11:05;13.43;;;5.63;;
19643;SDS011;9970;-36.854;174.870;2023-06-01T04:13:38;10.30;;;3.63;;
19643;SDS011;9970;-36.854;174.870;2023-06-01T04:16:11;5.53;;;2.57;;
19643;SDS011;9970;-36.854;174.870;2023-06-01T04:18:44;19.87;;;4.10;;
19643;SDS011;9970;-36.854;174.870;2023-06-01T04:21:18;11.70;;;3.20;;
19643;SDS011;9970;-36.854;174.870;2023-06-01T04:23:51;5.40;;;3.50;;
19643;SDS011;9970;-36.854;174.870;2023-06-01T04:26:24;10.10;;;3.07;;
19643;SDS011;9970;-36.854;174.870;2023-06-01T04:29:00;12.10;;;4.00;;
19643;SDS011;9970;-36.854;174.870;2023-06-01T04:31:33;6.03;;;3.20;;
19643;SDS011;9970;-36.854;174.870;2023-06-01T04:34:06;5.43;;;3.30;;
19643;SDS011;9970;-36.854;174.870;2023-06-01T04:36:39;10.70;;;3.47;;
19643;SDS011;9970;-36.854;174.870;2023-06-01T04:39:12;15.43;;;3.70;;
19643;SDS011;9970;-36.854;174.870;2023-06-01T04:41:45;10.80;;;3.47;;
19643;SDS011;9970;-36.854;174.870;2023-06-01T04:44:18;9.73;;;3.40;;
19643;SDS011;9970;-36.854;174.870;2023-06-01T04:46:51;9.03;;;3.27;;
19643;SDS011;9970;-36.854;174.870;2023-06-01T04:49:24;9.13;;;4.10;;
19643;SDS011;9970;-36.854;174.870;2023-06-01T04:51:58;6.27;;;2.73;;
19643;SDS011;9970;-36.854;174.870;2023-06-01T04:54:31;11.10;;;4.80;;
19643;SDS011;9970;-36.854;174.870;2023-06-01T04:57:05;14.27;;;3.43;;
19643;SDS011;9970;-36.854;174.870;2023-06-01T04:59:38;12.67;;;3.80;;
19643;SDS011;9970;-36.854;174.870;2023-06-01T05:02:11;5.50;;;3.53;;
19643;SDS011;9970;-36.854;174.870;2023-06-01T05:04:45;18.30;;;4.40;;
19643;SDS011;9970;-36.854;174.870;2023-06-01T05:07:18;13.90;;;3.43;;
19643;SDS011;9970;-36.854;174.870;2023-06-01T05:09:51;12.50;;;4.07;;
19643;SDS011;9970;-36.854;174.870;2023-06-01T05:12:25;12.13;;;4.03;;
19643;SDS011;9970;-36.854;174.870;2023-06-01T05:14:58;13.00;;;3.50;;
19643;SDS011;9970;-36.854;174.870;2023-06-01T05:17:31;22.87;;;4.30;;
19643;SDS011;9970;-36.854;174.870;2023-06-01T05:20:04;17.57;;;4.23;;
19643;SDS011;9970;-36.854;174.870;2023-06-01T05:22:38;8.70;;;4.87;;
19643;SDS011;9970;-36.854;174.870;2023-06-01T05:25:11;12.37;;;4.63;;
19643;SDS011;9970;-36.854;174.870;2023-06-01T05:27:44;9.67;;;3.73;;
19643;SDS011;9970;-36.854;174.870;2023-06-01T05:30:17;11.60;;;4.63;;
19643;SDS011;9970;-36.854;174.870;2023-06-01T05:32:50;5.10;;;3.80;;
19643;SDS011;9970;-36.854;174.870;2023-06-01T05:35:23;14.33;;;4.10;;
19643;SDS011;9970;-36.854;174.870;2023-06-01T05:37:56;9.37;;;3.70;;
19643;SDS011;9970;-36.854;174.870;2023-06-01T05:40:29;14.63;;;3.80;;
19643;SDS011;9970;-36.854;174.870;2023-06-01T05:43:02;10.70;;;3.40;;
19643;SDS011;9970;-36.854;174.870;2023-06-01T05:45:36;5.10;;;2.83;;
19643;SDS011;9970;-36.854;174.870;2023-06-01T05:48:09;12.23;;;3.70;;
19643;SDS011;9970;-36.854;174.870;2023-06-01T05:50:43;14.80;;;4.43;;
19643;SDS011;9970;-36.854;174.870;2023-06-01T05:53:16;13.57;;;4.30;;
19643;SDS011;9970;-36.854;174.870;2023-06-01T05:55:50;9.63;;;4.07;;
19643;SDS011;9970;-36.854;174.870;2023-06-01T05:58:23;15.53;;;5.50;;
19643;SDS011;9970;-36.854;174.870;2023-06-01T06:00:56;8.23;;;4.60;;
19643;SDS011;9970;-36.854;174.870;2023-06-01T06:03:29;13.60;;;4.90;;
19643;SDS011;9970;-36.854;174.870;2023-06-01T06:06:03;12.90;;;5.97;;
19643;SDS011;9970;-36.854;174.870;2023-06-01T06:08:36;19.70;;;6.47;;
19643;SDS011;9970;-36.854;174.870;2023-06-01T06:11:09;19.47;;;5.03;;
19643;SDS011;9970;-36.854;174.870;2023-06-01T06:13:42;12.70;;;4.43;;
19643;SDS011;9970;-36.854;174.870;2023-06-01T06:16:15;11.57;;;4.00;;
19643;SDS011;9970;-36.854;174.870;2023-06-01T06:18:48;9.90;;;4.60;;
19643;SDS011;9970;-36.854;174.870;2023-06-01T06:21:21;8.90;;;3.60;;
19643;SDS011;9970;-36.854;174.870;2023-06-01T06:23:54;14.53;;;6.00;;
19643;SDS011;9970;-36.854;174.870;2023-06-01T06:26:28;11.73;;;4.60;;
19643;SDS011;9970;-36.854;174.870;2023-06-01T06:29:01;13.73;;;4.50;;
19643;SDS011;9970;-36.854;174.870;2023-06-01T06:31:34;17.87;;;6.13;;
19643;SDS011;9970;-36.854;174.870;2023-06-01T06:34:07;12.33;;;5.17;;
19643;SDS011;9970;-36.854;174.870;2023-06-01T06:36:40;20.53;;;5.10;;
19643;SDS011;9970;-36.854;174.870;2023-06-01T06:39:13;11.03;;;4.13;;
19643;SDS011;9970;-36.854;174.870;2023-06-01T06:41:46;17.00;;;4.80;;
19643;SDS011;9970;-36.854;174.870;2023-06-01T06:44:18;7.57;;;4.87;;
19643;SDS011;9970;-36.854;174.870;2023-06-01T06:46:52;17.87;;;4.63;;
19643;SDS011;9970;-36.854;174.870;2023-06-01T06:49:26;13.63;;;5.50;;
19643;SDS011;9970;-36.854;174.870;2023-06-01T06:51:59;12.33;;;5.00;;
19643;SDS011;9970;-36.854;174.870;2023-06-01T06:54:32;12.83;;;5.00;;
19643;SDS011;9970;-36.854;174.870;2023-06-01T06:57:05;13.90;;;4.80;;
19643;SDS011;9970;-36.854;174.870;2023-06-01T06:59:38;9.93;;;5.13;;
19643;SDS011;9970;-36.854;174.870;2023-06-01T07:02:11;6.30;;;4.43;;
19643;SDS011;9970;-36.854;174.870;2023-06-01T07:04:44;10.67;;;4.93;;
19643;SDS011;9970;-36.854;174.870;2023-06-01T07:07:18;16.50;;;5.47;;
19643;SDS011;9970;-36.854;174.870;2023-06-01T07:09:51;10.90;;;6.57;;
19643;SDS011;9970;-36.854;174.870;2023-06-01T07:12:24;11.67;;;4.50;;
19643;SDS011;9970;-36.854;174.870;2023-06-01T07:15:01;11.60;;;4.47;;
19643;SDS011;9970;-36.854;174.870;2023-06-01T07:17:35;9.10;;;4.30;;
19643;SDS011;9970;-36.854;174.870;2023-06-01T07:20:08;17.53;;;5.50;;
19643;SDS011;9970;-36.854;174.870;2023-06-01T07:22:41;12.63;;;4.00;;
19643;SDS011;9970;-36.854;174.870;2023-06-01T07:25:17;10.03;;;4.23;;
19643;SDS011;9970;-36.854;174.870;2023-06-01T07:27:50;10.07;;;4.30;;
19643;SDS011;9970;-36.854;174.870;2023-06-01T07:30:24;9.93;;;5.20;;
19643;SDS011;9970;-36.854;174.870;2023-06-01T07:32:57;9.50;;;6.00;;
19643;SDS011;9970;-36.854;174.870;2023-06-01T07:35:31;14.90;;;5.40;;
19643;SDS011;9970;-36.854;174.870;2023-06-01T07:38:04;13.20;;;5.50;;
19643;SDS011;9970;-36.854;174.870;2023-06-01T07:40:37;14.50;;;4.70;;
19643;SDS011;9970;-36.854;174.870;2023-06-01T07:43:10;14.90;;;5.17;;
19643;SDS011;9970;-36.854;174.870;2023-06-01T07:45:43;6.00;;;3.90;;
19643;SDS011;9970;-36.854;174.870;2023-06-01T07:48:19;14.63;;;5.00;;
19643;SDS011;9970;-36.854;174.870;2023-06-01T07:50:52;9.70;;;7.30;;
19643;SDS011;9970;-36.854;174.870;2023-06-01T07:53:25;10.17;;;5.60;;
19643;SDS011;9970;-36.854;174.870;2023-06-01T07:56:00;10.77;;;4.80;;
19643;SDS011;9970;-36.854;174.870;2023-06-01T07:58:34;12.23;;;5.43;;
19643;SDS011;9970;-36.854;174.870;2023-06-01T08:01:07;10.57;;;4.40;;
19643;SDS011;9970;-36.854;174.870;2023-06-01T08:03:42;11.53;;;4.00;;
19643;SDS011;9970;-36.854;174.870;2023-06-01T08:06:20;9.70;;;4.53;;
19643;SDS011;9970;-36.854;174.870;2023-06-01T08:08:53;12.80;;;4.27;;
19643;SDS011;9970;-36.854;174.870;2023-06-01T08:11:26;12.63;;;5.40;;
19643;SDS011;9970;-36.854;174.870;2023-06-01T08:13:59;12.10;;;4.37;;
19643;SDS011;9970;-36.854;174.870;2023-06-01T08:16:33;12.17;;;3.97;;
19643;SDS011;9970;-36.854;174.870;2023-06-01T08:19:06;9.07;;;4.90;;
19643;SDS011;9970;-36.854;174.870;2023-06-01T08:21:39;20.47;;;5.07;;
19643;SDS011;9970;-36.854;174.870;2023-06-01T08:24:12;17.27;;;5.07;;
19643;SDS011;9970;-36.854;174.870;2023-06-01T08:26:46;10.00;;;3.83;;
19643;SDS011;9970;-36.854;174.870;2023-06-01T08:29:23;11.33;;;3.83;;
19643;SDS011;9970;-36.854;174.870;2023-06-01T08:31:57;13.50;;;4.17;;
19643;SDS011;9970;-36.854;174.870;2023-06-01T08:34:29;13.40;;;4.17;;
19643;SDS011;9970;-36.854;174.870;2023-06-01T08:37:04;17.53;;;4.83;;
19643;SDS011;9970;-36.854;174.870;2023-06-01T08:39:37;10.43;;;5.13;;
19643;SDS011;9970;-36.854;174.870;2023-06-01T08:42:14;11.90;;;5.17;;
19643;SDS011;9970;-36.854;174.870;2023-06-01T08:44:53;17.03;;;6.40;;
19643;SDS011;9970;-36.854;174.870;2023-06-01T08:47:28;20.90;;;5.27;;
19643;SDS011;9970;-36.854;174.870;2023-06-01T08:50:02;13.60;;;4.30;;
19643;SDS011;9970;-36.854;174.870;2023-06-01T08:52:36;10.60;;;4.67;;
19643;SDS011;9970;-36.854;174.870;2023-06-01T08:55:15;14.07;;;4.60;;
19643;SDS011;9970;-36.854;174.870;2023-06-01T08:57:48;13.00;;;4.50;;
19643;SDS011;9970;-36.854;174.870;2023-06-01T09:00:21;10.80;;;3.70;;
19643;SDS011;9970;-36.854;174.870;2023-06-01T09:02:56;7.20;;;4.40;;
19643;SDS011;9970;-36.854;174.870;2023-06-01T09:05:29;13.23;;;4.40;;
19643;SDS011;9970;-36.854;174.870;2023-06-01T09:08:03;16.40;;;5.30;;
19643;SDS011;9970;-36.854;174.870;2023-06-01T09:10:36;15.33;;;4.93;;
19643;SDS011;9970;-36.854;174.870;2023-06-01T09:13:09;19.03;;;7.67;;
19643;SDS011;9970;-36.854;174.870;2023-06-01T09:15:51;29.60;;;5.90;;
19643;SDS011;9970;-36.854;174.870;2023-06-01T09:18:24;12.20;;;6.37;;
19643;SDS011;9970;-36.854;174.870;2023-06-01T09:21:13;11.03;;;4.50;;
19643;SDS011;9970;-36.854;174.870;2023-06-01T09:23:46;23.40;;;7.20;;
19643;SDS011;9970;-36.854;174.870;2023-06-01T09:26:25;13.17;;;5.33;;
19643;SDS011;9970;-36.854;174.870;2023-06-01T09:28:54;12.80;;;5.30;;
19643;SDS011;9970;-36.854;174.870;2023-06-01T09:31:37;11.70;;;4.73;;
19643;SDS011;9970;-36.854;174.870;2023-06-01T09:34:16;17.73;;;6.90;;
19643;SDS011;9970;-36.854;174.870;2023-06-01T09:36:50;16.40;;;6.83;;
19643;SDS011;9970;-36.854;174.870;2023-06-01T09:39:23;18.43;;;6.57;;
19643;SDS011;9970;-36.854;174.870;2023-06-01T09:41:57;16.03;;;6.33;;
19643;SDS011;9970;-36.854;174.870;2023-06-01T09:44:33;9.03;;;7.27;;
19643;SDS011;9970;-36.854;174.870;2023-06-01T09:47:13;18.80;;;8.90;;
19643;SDS011;9970;-36.854;174.870;2023-06-01T09:49:47;21.53;;;9.33;;
19643;SDS011;9970;-36.854;174.870;2023-06-01T09:52:21;10.40;;;5.57;;
19643;SDS011;9970;-36.854;174.870;2023-06-01T09:54:54;12.13;;;4.90;;
19643;SDS011;9970;-36.854;174.870;2023-06-01T09:57:28;11.50;;;4.93;;
19643;SDS011;9970;-36.854;174.870;2023-06-01T10:00:02;8.43;;;5.40;;
19643;SDS011;9970;-36.854;174.870;2023-06-01T10:02:36;17.63;;;4.43;;
19643;SDS011;9970;-36.854;174.870;2023-06-01T10:05:11;5.60;;;3.87;;
19643;SDS011;9970;-36.854;174.870;2023-06-01T10:07:44;18.23;;;4.60;;
19643;SDS011;9970;-36.854;174.870;2023-06-01T10:10:20;10.30;;;3.97;;
19643;SDS011;9970;-36.854;174.870;2023-06-01T10:12:52;12.60;;;5.53;;
19643;SDS011;9970;-36.854;174.870;2023-06-01T10:15:25;15.80;;;4.80;;
19643;SDS011;9970;-36.854;174.870;2023-06-01T10:17:59;13.00;;;3.73;;
19643;SDS011;9970;-36.854;174.870;2023-06-01T10:20:33;14.63;;;5.03;;
19643;SDS011;9970;-36.854;174.870;2023-06-01T10:23:11;6.40;;;3.80;;
19643;SDS011;9970;-36.854;174.870;2023-06-01T10:25:46;10.03;;;4.60;;
19643;SDS011;9970;-36.854;174.870;2023-06-01T10:28:21;13.63;;;4.93;;
19643;SDS011;9970;-36.854;174.870;2023-06-01T10:34:04;24.73;;;5.53;;
19643;SDS011;9970;-36.854;174.870;2023-06-01T10:39:30;22.43;;;5.50;;
19643;SDS011;9970;-36.854;174.870;2023-06-01T10:44:49;18.50;;;6.37;;
19643;SDS011;9970;-36.854;174.870;2023-06-01T10:52:32;5.47;;;3.73;;
19643;SDS011;9970;-36.854;174.870;2023-06-01T10:57:46;14.80;;;5.73;;
19643;SDS011;9970;-36.854;174.870;2023-06-01T11:00:23;17.73;;;4.53;;
19643;SDS011;9970;-36.854;174.870;2023-06-01T11:03:03;13.50;;;3.57;;
19643;SDS011;9970;-36.854;174.870;2023-06-01T11:10:59;16.30;;;4.43;;
19643;SDS011;9970;-36.854;174.870;2023-06-01T11:13:36;11.10;;;3.87;;
19643;SDS011;9970;-36.854;174.870;2023-06-01T11:18:53;10.67;;;3.87;;
19643;SDS011;9970;-36.854;174.870;2023-06-01T11:21:40;7.97;;;2.83;;
19643;SDS011;9970;-36.854;174.870;2023-06-01T11:24:14;7.33;;;3.83;;
19643;SDS011;9970;-36.854;174.870;2023-06-01T11:26:53;16.47;;;4.53;;
19643;SDS011;9970;-36.854;174.870;2023-06-01T11:29:28;8.97;;;3.27;;
19643;SDS011;9970;-36.854;174.870;2023-06-01T11:32:02;4.47;;;2.57;;
19643;SDS011;9970;-36.854;174.870;2023-06-01T11:34:37;11.60;;;3.37;;
19643;SDS011;9970;-36.854;174.870;2023-06-01T11:37:15;6.67;;;4.60;;
19643;SDS011;9970;-36.854;174.870;2023-06-01T11:39:48;9.20;;;3.27;;
19643;SDS011;9970;-36.854;174.870;2023-06-01T11:42:22;12.37;;;3.90;;
19643;SDS011;9970;-36.854;174.870;2023-06-01T11:44:57;7.43;;;3.37;;
19643;SDS011;9970;-36.854;174.870;2023-06-01T11:47:34;13.07;;;3.70;;
19643;SDS011;9970;-36.854;174.870;2023-06-01T11:50:09;5.10;;;3.50;;
19643;SDS011;9970;-36.854;174.870;2023-06-01T11:52:55;9.13;;;3.00;;
19643;SDS011;9970;-36.854;174.870;2023-06-01T11:55:29;9.30;;;3.30;;
19643;SDS011;9970;-36.854;174.870;2023-06-01T11:58:02;12.87;;;4.23;;
19643;SDS011;9970;-36.854;174.870;2023-06-01T12:00:38;9.10;;;4.03;;
19643;SDS011;9970;-36.854;174.870;2023-06-01T12:03:11;15.17;;;5.33;;
19643;SDS011;9970;-36.854;174.870;2023-06-01T12:05:44;10.27;;;3.30;;
19643;SDS011;9970;-36.854;174.870;2023-06-01T12:08:18;18.30;;;3.83;;
19643;SDS011;9970;-36.854;174.870;2023-06-01T12:10:55;8.53;;;4.77;;
19643;SDS011;9970;-36.854;174.870;2023-06-01T12:13:29;11.77;;;2.53;;
19643;SDS011;9970;-36.854;174.870;2023-06-01T12:16:02;8.50;;;3.07;;
19643;SDS011;9970;-36.854;174.870;2023-06-01T12:18:36;10.20;;;3.10;;
19643;SDS011;9970;-36.854;174.870;2023-06-01T12:21:09;7.30;;;3.00;;
19643;SDS011;9970;-36.854;174.870;2023-06-01T12:23:43;10.23;;;3.37;;
19643;SDS011;9970;-36.854;174.870;2023-06-01T12:26:23;5.10;;;2.97;;
19643;SDS011;9970;-36.854;174.870;2023-06-01T12:28:57;6.20;;;3.13;;
19643;SDS011;9970;-36.854;174.870;2023-06-01T12:31:30;7.50;;;2.93;;
19643;SDS011;9970;-36.854;174.870;2023-06-01T12:34:04;18.13;;;3.07;;
19643;SDS011;9970;-36.854;174.870;2023-06-01T12:36:39;12.27;;;3.90;;
19643;SDS011;9970;-36.854;174.870;2023-06-01T12:39:12;4.67;;;3.73;;
19643;SDS011;9970;-36.854;174.870;2023-06-01T12:41:48;12.33;;;3.07;;
19643;SDS011;9970;-36.854;174.870;2023-06-01T12:44:21;7.10;;;3.13;;
19643;SDS011;9970;-36.854;174.870;2023-06-01T12:46:57;8.60;;;3.53;;
19643;SDS011;9970;-36.854;174.870;2023-06-01T12:49:30;15.30;;;3.30;;
19643;SDS011;9970;-36.854;174.870;2023-06-01T12:52:03;12.60;;;2.90;;
19643;SDS011;9970;-36.854;174.870;2023-06-01T12:54:37;10.77;;;4.87;;
19643;SDS011;9970;-36.854;174.870;2023-06-01T12:57:12;8.17;;;3.10;;
19643;SDS011;9970;-36.854;174.870;2023-06-01T12:59:47;8.13;;;3.13;;
19643;SDS011;9970;-36.854;174.870;2023-06-01T13:02:20;6.87;;;2.77;;
19643;SDS011;9970;-36.854;174.870;2023-06-01T13:04:53;11.23;;;3.00;;
19643;SDS011;9970;-36.854;174.870;2023-06-01T13:07:28;5.27;;;3.20;;
19643;SDS011;9970;-36.854;174.870;2023-06-01T13:10:01;11.90;;;3.33;;
19643;SDS011;9970;-36.854;174.870;2023-06-01T13:12:34;9.83;;;3.40;;
19643;SDS011;9970;-36.854;174.870;2023-06-01T13:15:08;8.30;;;3.40;;
19643;SDS011;9970;-36.854;174.870;2023-06-01T13:17:41;10.27;;;5.33;;
19643;SDS011;9970;-36.854;174.870;2023-06-01T13:20:14;6.33;;;3.00;;
19643;SDS011;9970;-36.854;174.870;2023-06-01T13:22:47;11.43;;;3.57;;
19643;SDS011;9970;-36.854;174.870;2023-06-01T13:25:20;17.80;;;3.43;;
19643;SDS011;9970;-36.854;174.870;2023-06-01T13:27:53;8.43;;;3.93;;
19643;SDS011;9970;-36.854;174.870;2023-06-01T13:30:26;5.90;;;2.80;;
19643;SDS011;9970;-36.854;174.870;2023-06-01T13:33:00;7.83;;;3.50;;
19643;SDS011;9970;-36.854;174.870;2023-06-01T13:35:34;8.00;;;3.00;;
19643;SDS011;9970;-36.854;174.870;2023-06-01T13:38:07;6.93;;;3.10;;
19643;SDS011;9970;-36.854;174.870;2023-06-01T13:40:40;4.50;;;2.80;;
19643;SDS011;9970;-36.854;174.870;2023-06-01T13:43:12;18.67;;;3.50;;
19643;SDS011;9970;-36.854;174.870;2023-06-01T13:45:45;13.37;;;3.60;;
19643;SDS011;9970;-36.854;174.870;2023-06-01T13:48:18;4.93;;;3.20;;
19643;SDS011;9970;-36.854;174.870;2023-06-01T13:50:51;11.07;;;3.97;;
19643;SDS011;9970;-36.854;174.870;2023-06-01T13:53:24;3.30;;;2.90;;
19643;SDS011;9970;-36.854;174.870;2023-06-01T13:55:58;13.20;;;3.20;;
19643;SDS011;9970;-36.854;174.870;2023-06-01T13:58:31;11.00;;;3.30;;
19643;SDS011;9970;-36.854;174.870;2023-06-01T14:01:04;15.87;;;3.03;;
19643;SDS011;9970;-36.854;174.870;2023-06-01T14:03:37;7.20;;;3.43;;
19643;SDS011;9970;-36.854;174.870;2023-06-01T14:06:10;7.50;;;2.50;;
19643;SDS011;9970;-36.854;174.870;2023-06-01T14:08:47;10.70;;;3.60;;
19643;SDS011;9970;-36.854;174.870;2023-06-01T14:11:18;4.93;;;2.53;;
19643;SDS011;9970;-36.854;174.870;2023-06-01T14:13:57;13.27;;;3.03;;
19643;SDS011;9970;-36.854;174.870;2023-06-01T14:16:30;3.50;;;3.20;;
19643;SDS011;9970;-36.854;174.870;2023-06-01T14:19:03;13.70;;;2.87;;
19643;SDS011;9970;-36.854;174.870;2023-06-01T14:21:36;6.10;;;3.13;;
19643;SDS011;9970;-36.854;174.870;2023-06-01T14:24:09;8.23;;;2.80;;
19643;SDS011;9970;-36.854;174.870;2023-06-01T14:26:42;6.67;;;2.43;;
19643;SDS011;9970;-36.854;174.870;2023-06-01T14:29:15;3.87;;;2.80;;
19643;SDS011;9970;-36.854;174.870;2023-06-01T14:31:48;10.23;;;3.90;;
19643;SDS011;9970;-36.854;174.870;2023-06-01T14:34:21;6.60;;;2.53;;
19643;SDS011;9970;-36.854;174.870;2023-06-01T14:36:54;5.30;;;2.87;;
19643;SDS011;9970;-36.854;174.870;2023-06-01T14:39:27;2.90;;;2.40;;
19643;SDS011;9970;-36.854;174.870;2023-06-01T14:42:00;13.90;;;4.23;;
19643;SDS011;9970;-36.854;174.870;2023-06-01T14:44:33;9.93;;;3.83;;
19643;SDS011;9970;-36.854;174.870;2023-06-01T14:47:06;6.47;;;2.63;;
19643;SDS011;9970;-36.854;174.870;2023-06-01T14:49:41;7.70;;;2.97;;
19643;SDS011;9970;-36.854;174.870;2023-06-01T14:52:14;10.73;;;2.90;;
19643;SDS011;9970;-36.854;174.870;2023-06-01T14:54:47;12.97;;;3.20;;
19643;SDS011;9970;-36.854;174.870;2023-06-01T14:57:20;3.90;;;3.17;;
19643;SDS011;9970;-36.854;174.870;2023-06-01T14:59:53;6.27;;;3.20;;
19643;SDS011;9970;-36.854;174.870;2023-06-01T15:02:27;7.20;;;2.50;;
19643;SDS011;9970;-36.854;174.870;2023-06-01T15:05:07;7.87;;;2.70;;
19643;SDS011;9970;-36.854;174.870;2023-06-01T15:07:40;5.23;;;2.23;;
19643;SDS011;9970;-36.854;174.870;2023-06-01T15:10:13;8.47;;;3.23;;
19643;SDS011;9970;-36.854;174.870;2023-06-01T15:12:46;4.93;;;4.07;;
19643;SDS011;9970;-36.854;174.870;2023-06-01T15:15:20;7.73;;;2.73;;
19643;SDS011;9970;-36.854;174.870;2023-06-01T15:17:53;3.87;;;2.80;;
19643;SDS011;9970;-36.854;174.870;2023-06-01T15:20:26;7.33;;;2.83;;
19643;SDS011;9970;-36.854;174.870;2023-06-01T15:23:00;7.37;;;2.40;;
19643;SDS011;9970;-36.854;174.870;2023-06-01T15:25:35;8.73;;;2.77;;